createdAt,value
2023-02-01T00:06:01.104Z,6.60
2023-02-01T00:13:01.181Z,6.60
2023-02-01T00:20:01.839Z,6.50
2023-02-01T00:27:02.113Z,6.50
2023-02-01T00:34:02.740Z,6.50
2023-02-01T00:41:10.446Z,6.50
2023-02-01T00:48:10.510Z,6.50
2023-02-01T00:55:11.006Z,6.50
2023-02-01T01:02:13.427Z,6.50
2023-02-01T01:09:13.548Z,6.40
2023-02-01T01:16:14.622Z,6.30
2023-02-01T01:23:14.881Z,6.30
2023-02-01T01:30:15.679Z,6.30
2023-02-01T01:37:15.986Z,6.30
2023-02-01T01:44:58.318Z,6.20
2023-02-01T01:52:03.497Z,6.10
2023-02-01T01:59:05.633Z,6.10
2023-02-01T02:06:11.668Z,6.00
2023-02-01T02:13:13.382Z,5.90
2023-02-01T02:20:46.411Z,5.90
2023-02-01T02:28:12.954Z,5.90
2023-02-01T02:35:30.459Z,5.90
2023-02-01T02:43:00.888Z,5.90
2023-02-01T02:50:34.992Z,5.90
2023-02-01T02:57:58.650Z,5.90
2023-02-01T03:04:59.671Z,5.90
2023-02-01T03:12:26.224Z,5.90
2023-02-01T03:19:44.504Z,5.90
2023-02-01T03:26:53.128Z,5.90
2023-02-01T03:33:53.653Z,5.90
2023-02-01T03:41:03.191Z,5.90
2023-02-01T03:48:05.278Z,5.90
2023-02-01T03:55:07.441Z,5.90
2023-02-01T04:02:08.327Z,5.90
2023-02-01T04:09:08.848Z,6.00
2023-02-01T04:16:09.362Z,6.00
2023-02-01T04:23:09.908Z,6.00
2023-02-01T04:30:11.104Z,6.00
2023-02-01T04:37:11.580Z,6.10
2023-02-01T04:44:17.233Z,6.10
2023-02-01T04:51:18.968Z,6.10
2023-02-01T04:58:19.170Z,6.00
2023-02-01T05:05:19.601Z,5.90
2023-02-01T05:12:38.629Z,5.90
2023-02-01T05:19:39.097Z,5.80
2023-02-01T05:26:43.093Z,5.70
2023-02-01T05:33:43.619Z,5.70
2023-02-01T05:40:50.343Z,5.60
2023-02-01T05:47:50.837Z,5.50
2023-02-01T05:54:51.298Z,5.40
2023-02-01T06:01:51.804Z,5.50
2023-02-01T06:08:52.535Z,5.50
2023-02-01T06:15:53.359Z,5.50
2023-02-01T06:22:55.215Z,5.50
2023-02-01T06:29:56.083Z,5.40
2023-02-01T06:36:56.398Z,5.40
2023-02-01T06:43:56.965Z,5.40
2023-02-01T06:50:57.669Z,5.40
2023-02-01T06:57:58.065Z,5.50
2023-02-01T07:04:58.476Z,5.50
2023-02-01T07:11:58.913Z,5.50
2023-02-01T07:19:00.617Z,5.50
2023-02-01T07:26:04.064Z,5.60
2023-02-01T07:33:04.395Z,5.60
2023-02-01T07:40:05.504Z,5.50
2023-02-01T07:47:05.779Z,5.50
2023-02-01T07:54:06.385Z,5.50
2023-02-01T08:01:21.222Z,5.50
2023-02-01T08:08:22.008Z,5.50
2023-02-01T08:15:22.617Z,5.50
2023-02-01T08:22:23.038Z,5.50
2023-02-01T08:29:23.475Z,5.60
2023-02-01T08:36:25.755Z,5.60
2023-02-01T08:43:25.864Z,5.60
2023-02-01T08:50:26.902Z,5.60
2023-02-01T08:57:27.475Z,5.60
2023-02-01T09:04:27.967Z,5.70
2023-02-01T09:11:28.736Z,5.70
2023-02-01T09:18:29.403Z,5.80
2023-02-01T09:25:29.812Z,5.80
2023-02-01T09:32:30.362Z,5.80
2023-02-01T09:39:31.207Z,5.90
2023-02-01T09:46:34.626Z,5.90
2023-02-01T09:53:41.189Z,5.90
2023-02-01T10:00:44.786Z,6.00
2023-02-01T10:08:27.774Z,6.00
2023-02-01T10:15:43.685Z,6.00
2023-02-01T10:23:26.944Z,6.10
2023-02-01T10:30:32.345Z,6.20
2023-02-01T10:37:35.429Z,6.30
2023-02-01T10:44:46.455Z,6.50
2023-02-01T10:51:53.611Z,6.70
2023-02-01T10:59:01.907Z,6.90
2023-02-01T11:06:14.579Z,7.20
2023-02-01T11:13:17.758Z,7.30
2023-02-01T11:20:20.298Z,7.30
2023-02-01T11:27:27.582Z,7.20
2023-02-01T11:34:39.188Z,7.20
2023-02-01T11:41:45.478Z,7.10
2023-02-01T11:48:45.629Z,7.20
2023-02-01T11:56:10.475Z,7.30
2023-02-01T12:03:46.337Z,7.30
2023-02-01T12:11:04.020Z,7.20
2023-02-01T12:18:32.995Z,7.30
2023-02-01T12:25:36.202Z,7.30
2023-02-01T12:33:09.882Z,7.40
2023-02-01T12:40:28.811Z,7.40
2023-02-01T12:47:37.982Z,7.50
2023-02-01T12:54:50.967Z,7.50
2023-02-01T13:01:59.805Z,7.50
2023-02-01T13:09:15.531Z,7.40
2023-02-01T13:16:42.236Z,7.40
2023-02-01T13:23:47.383Z,7.40
2023-02-01T13:31:01.065Z,7.50
2023-02-01T13:38:19.340Z,7.50
2023-02-01T13:45:23.446Z,7.50
2023-02-01T13:52:40.565Z,7.50
2023-02-01T13:59:40.957Z,7.50
2023-02-01T14:06:44.477Z,7.50
2023-02-01T14:13:46.444Z,7.50
2023-02-01T14:20:50.071Z,7.60
2023-02-01T14:27:50.655Z,7.60
2023-02-01T14:34:55.518Z,7.70
2023-02-01T14:42:06.580Z,7.70
2023-02-01T14:49:07.294Z,7.70
2023-02-01T14:56:14.180Z,7.80
2023-02-01T15:03:42.692Z,7.90
2023-02-01T15:10:49.857Z,7.90
2023-02-01T15:18:00.775Z,7.90
2023-02-01T15:25:01.841Z,7.90
2023-02-01T15:32:02.302Z,7.90
2023-02-01T15:39:19.579Z,7.80
2023-02-01T15:46:44.530Z,7.80
2023-02-01T15:53:54.966Z,7.90
2023-02-01T16:00:58.696Z,7.90
2023-02-01T16:08:08.905Z,7.90
2023-02-01T16:15:09.635Z,8.00
2023-02-01T16:22:10.035Z,8.00
2023-02-01T16:29:10.449Z,8.00
2023-02-01T16:36:11.379Z,8.00
2023-02-01T16:43:20.606Z,8.00
2023-02-01T16:50:25.372Z,8.00
2023-02-01T16:57:28.554Z,7.90
2023-02-01T17:04:28.862Z,7.90
2023-02-01T17:11:30.811Z,7.90
2023-02-01T17:18:35.554Z,7.90
2023-02-01T17:25:36.098Z,7.80
2023-02-01T17:32:36.857Z,7.80
2023-02-01T17:39:55.974Z,7.70
2023-02-01T17:46:57.483Z,7.70
2023-02-01T17:53:58.221Z,7.70
2023-02-01T18:00:58.952Z,7.70
2023-02-01T18:07:59.034Z,7.70
2023-02-01T18:14:59.357Z,7.70
2023-02-01T18:21:59.871Z,7.70
2023-02-01T18:29:00.766Z,7.70
2023-02-01T18:36:01.332Z,7.70
2023-02-01T18:43:02.400Z,7.70
2023-02-01T18:50:04.207Z,7.60
2023-02-01T18:57:06.577Z,6.20
2023-02-01T19:04:08.421Z,6.10
2023-02-01T19:11:15.404Z,7.50
2023-02-01T19:18:20.080Z,7.50
2023-02-01T19:25:23.713Z,7.60
2023-02-01T19:32:24.262Z,7.60
2023-02-01T19:39:25.143Z,7.60
2023-02-01T19:46:26.514Z,7.70
2023-02-01T19:53:28.181Z,7.70
2023-02-01T20:00:28.063Z,7.70
2023-02-01T20:07:28.545Z,7.70
2023-02-01T20:14:29.650Z,7.60
2023-02-01T20:21:30.472Z,7.60
2023-02-01T20:28:32.584Z,7.70
2023-02-01T20:35:33.001Z,7.70
2023-02-01T20:42:33.132Z,7.70
2023-02-01T20:49:34.644Z,7.70
2023-02-01T20:56:35.284Z,7.70
2023-02-01T21:03:36.401Z,7.70
2023-02-01T21:10:38.013Z,7.70
2023-02-01T21:17:39.817Z,7.70
2023-02-01T21:24:41.069Z,7.80
2023-02-01T21:31:42.523Z,7.80
2023-02-01T21:38:42.625Z,7.90
2023-02-01T21:45:50.923Z,7.90
2023-02-01T21:52:51.607Z,7.90
2023-02-01T21:59:52.179Z,7.90
2023-02-01T22:06:52.962Z,8.00
2023-02-01T22:13:54.350Z,8.00
2023-02-01T22:21:03.834Z,7.90
2023-02-01T22:28:30.516Z,7.90
2023-02-01T22:35:25.258Z,7.90
2023-02-01T22:42:25.449Z,7.90
2023-02-01T22:49:25.947Z,7.90
2023-02-01T22:56:32.802Z,7.90
2023-02-01T23:03:33.046Z,7.90
2023-02-01T23:10:33.391Z,7.90
2023-02-01T23:17:37.265Z,7.80
2023-02-01T23:24:37.715Z,7.80
2023-02-01T23:31:38.195Z,7.80
2023-02-01T23:38:38.420Z,7.70
2023-02-01T23:45:38.707Z,7.70
2023-02-01T23:52:39.073Z,7.60
2023-02-01T23:59:39.421Z,7.60
